sensor_id;sensor_type;location;lat;lon;timestamp;pressure;altitude;pressure_sealevel;temperature;humidity
35676;BME280;21790;42.668;23.298;2022-09-09T00:00:38;94921.13;;;25.34;45.30
35676;BME280;21790;42.668;23.298;2022-09-09T00:03:14;94916.63;;;25.38;45.40
35676;BME280;21790;42.668;23.298;2022-09-09T00:08:24;94907.00;;;25.13;46.41
35676;BME280;21790;42.668;23.298;2022-09-09T00:10:58;94910.16;;;25.30;45.83
35676;BME280;21790;42.668;23.298;2022-09-09T00:13:52;94912.50;;;25.39;45.57
35676;BME280;21790;42.668;23.298;2022-09-09T00:16:21;94908.84;;;25.11;45.88
35676;BME280;21790;42.668;23.298;2022-09-09T00:19:20;94910.16;;;25.30;45.84
35676;BME280;21790;42.668;23.298;2022-09-09T00:22:00;94902.00;;;25.27;45.58
35676;BME280;21790;42.668;23.298;2022-09-09T00:24:39;94895.88;;;25.36;45.29
35676;BME280;21790;42.668;23.298;2022-09-09T00:30:18;94886.56;;;25.28;45.15
35676;BME280;21790;42.668;23.298;2022-09-09T00:33:15;94879.06;;;25.10;45.96
35676;BME280;21790;42.668;23.298;2022-09-09T00:35:51;94876.31;;;24.96;46.16
35676;BME280;21790;42.668;23.298;2022-09-09T00:41:00;94868.66;;;24.84;46.02
35676;BME280;21790;42.668;23.298;2022-09-09T00:43:32;94868.75;;;24.91;45.59
35676;BME280;21790;42.668;23.298;2022-09-09T00:51:56;94870.53;;;25.02;45.11
35676;BME280;21790;42.668;23.298;2022-09-09T00:57:04;94876.31;;;24.96;45.89
35676;BME280;21790;42.668;23.298;2022-09-09T00:59:48;94881.47;;;24.85;45.91
35676;BME280;21790;42.668;23.298;2022-09-09T01:04:56;94882.72;;;24.76;46.38
35676;BME280;21790;42.668;23.298;2022-09-09T01:07:26;94883.13;;;24.59;46.67
35676;BME280;21790;42.668;23.298;2022-09-09T01:09:59;94882.78;;;24.63;46.90
35676;BME280;21790;42.668;23.298;2022-09-09T01:14:59;94884.63;;;24.60;46.92
35676;BME280;21790;42.668;23.298;2022-09-09T01:17:31;94879.50;;;24.38;47.31
35676;BME280;21790;42.668;23.298;2022-09-09T01:20:24;94874.78;;;24.54;46.89
35676;BME280;21790;42.668;23.298;2022-09-09T01:23:30;94879.44;;;24.51;46.99
35676;BME280;21790;42.668;23.298;2022-09-09T01:28:28;94863.09;;;24.37;47.55
35676;BME280;21790;42.668;23.298;2022-09-09T01:30:56;94868.22;;;24.38;47.13
35676;BME280;21790;42.668;23.298;2022-09-09T01:33:22;94874.56;;;24.18;47.50
35676;BME280;21790;42.668;23.298;2022-09-09T01:36:03;94873.22;;;24.32;47.33
35676;BME280;21790;42.668;23.298;2022-09-09T01:38:31;94878.25;;;24.26;47.87
35676;BME280;21790;42.668;23.298;2022-09-09T01:40:59;94879.91;;;24.22;47.56
35676;BME280;21790;42.668;23.298;2022-09-09T01:43:26;94883.06;;;24.05;48.28
35676;BME280;21790;42.668;23.298;2022-09-09T01:45:58;94892.31;;;23.79;48.85
35676;BME280;21790;42.668;23.298;2022-09-09T01:48:24;94897.16;;;24.05;48.22
35676;BME280;21790;42.668;23.298;2022-09-09T01:50:50;94900.88;;;24.00;48.26
35676;BME280;21790;42.668;23.298;2022-09-09T01:53:17;94903.88;;;24.15;47.56
35676;BME280;21790;42.668;23.298;2022-09-09T01:56:04;94906.81;;;24.09;48.30
35676;BME280;21790;42.668;23.298;2022-09-09T02:02:07;94904.63;;;24.15;47.91
35676;BME280;21790;42.668;23.298;2022-09-09T02:04:44;94892.75;;;24.43;46.68
35676;BME280;21790;42.668;23.298;2022-09-09T02:10:21;94899.09;;;24.23;47.43
35676;BME280;21790;42.668;23.298;2022-09-09T02:13:02;94890.63;;;24.23;47.46
35676;BME280;21790;42.668;23.298;2022-09-09T02:15:34;94882.72;;;24.08;47.75
35676;BME280;21790;42.668;23.298;2022-09-09T02:18:03;94872.31;;;24.03;47.43
35676;BME280;21790;42.668;23.298;2022-09-09T02:20:32;94875.66;;;24.02;47.65
35676;BME280;21790;42.668;23.298;2022-09-09T02:22:59;94877.94;;;24.03;47.89
35676;BME280;21790;42.668;23.298;2022-09-09T02:25:28;94878.94;;;23.93;48.28
35676;BME280;21790;42.668;23.298;2022-09-09T02:27:55;94875.72;;;23.75;48.60
35676;BME280;21790;42.668;23.298;2022-09-09T02:30:23;94884.66;;;24.00;47.79
35676;BME280;21790;42.668;23.298;2022-09-09T02:32:50;94888.00;;;24.12;47.78
35676;BME280;21790;42.668;23.298;2022-09-09T02:35:21;94883.00;;;24.31;47.49
35676;BME280;21790;42.668;23.298;2022-09-09T02:37:48;94882.28;;;24.17;47.53
35676;BME280;21790;42.668;23.298;2022-09-09T02:40:15;94890.25;;;23.93;48.32
35676;BME280;21790;42.668;23.298;2022-09-09T02:42:48;94900.94;;;24.07;48.16
35676;BME280;21790;42.668;23.298;2022-09-09T02:45:18;94899.53;;;24.14;47.82
35676;BME280;21790;42.668;23.298;2022-09-09T02:47:57;94901.19;;;23.96;48.20
35676;BME280;21790;42.668;23.298;2022-09-09T02:50:32;94905.19;;;24.01;48.14
35676;BME280;21790;42.668;23.298;2022-09-09T02:53:09;94895.88;;;23.93;48.20
35676;BME280;21790;42.668;23.298;2022-09-09T02:55:38;94903.50;;;23.71;48.67
35676;BME280;21790;42.668;23.298;2022-09-09T02:58:06;94900.22;;;23.81;48.74
35676;BME280;21790;42.668;23.298;2022-09-09T03:00:33;94899.59;;;23.74;48.87
35676;BME280;21790;42.668;23.298;2022-09-09T03:03:05;94897.94;;;23.79;48.20
35676;BME280;21790;42.668;23.298;2022-09-09T03:05:31;94899.38;;;23.72;48.48
35676;BME280;21790;42.668;23.298;2022-09-09T03:07:57;94896.53;;;23.86;48.06
35676;BME280;21790;42.668;23.298;2022-09-09T03:10:23;94895.47;;;23.75;48.26
35676;BME280;21790;42.668;23.298;2022-09-09T03:12:48;94906.00;;;23.75;48.31
35676;BME280;21790;42.668;23.298;2022-09-09T03:15:14;94899.16;;;23.84;48.31
35676;BME280;21790;42.668;23.298;2022-09-09T03:17:40;94898.94;;;23.68;48.66
35676;BME280;21790;42.668;23.298;2022-09-09T03:20:06;94892.88;;;23.64;48.64
35676;BME280;21790;42.668;23.298;2022-09-09T03:22:33;94904.03;;;23.83;47.80
35676;BME280;21790;42.668;23.298;2022-09-09T03:24:59;94896.69;;;23.67;47.62
35676;BME280;21790;42.668;23.298;2022-09-09T03:27:24;94901.53;;;23.53;47.94
35676;BME280;21790;42.668;23.298;2022-09-09T03:29:50;94900.91;;;23.60;48.32
35676;BME280;21790;42.668;23.298;2022-09-09T03:32:17;94892.88;;;23.64;48.01
35676;BME280;21790;42.668;23.298;2022-09-09T03:34:43;94890.25;;;23.80;47.30
35676;BME280;21790;42.668;23.298;2022-09-09T03:37:09;94894.16;;;23.76;47.21
35676;BME280;21790;42.668;23.298;2022-09-09T03:39:35;94897.09;;;23.71;47.48
35676;BME280;21790;42.668;23.298;2022-09-09T03:42:00;94896.66;;;23.54;47.98
35676;BME280;21790;42.668;23.298;2022-09-09T03:44:29;94895.03;;;23.58;47.42
35676;BME280;21790;42.668;23.298;2022-09-09T03:46:55;94884.84;;;23.55;47.66
35676;BME280;21790;42.668;23.298;2022-09-09T03:49:21;94899.81;;;23.50;47.97
35676;BME280;21790;42.668;23.298;2022-09-09T03:51:47;94897.97;;;23.66;47.32
35676;BME280;21790;42.668;23.298;2022-09-09T03:54:13;94895.03;;;23.71;46.92
35676;BME280;21790;42.668;23.298;2022-09-09T03:56:41;94892.41;;;23.87;46.77
35676;BME280;21790;42.668;23.298;2022-09-09T03:59:07;94898.72;;;23.53;47.63
35676;BME280;21790;42.668;23.298;2022-09-09T04:01:34;94906.66;;;23.55;47.54
35676;BME280;21790;42.668;23.298;2022-09-09T04:03:59;94908.78;;;23.22;48.37
35676;BME280;21790;42.668;23.298;2022-09-09T04:06:26;94909.06;;;23.19;48.65
35676;BME280;21790;42.668;23.298;2022-09-09T04:08:52;94899.88;;;23.18;48.66
35676;BME280;21790;42.668;23.298;2022-09-09T04:11:17;94906.59;;;23.42;48.58
35676;BME280;21790;42.668;23.298;2022-09-09T04:13:43;94909.22;;;23.40;48.38
35676;BME280;21790;42.668;23.298;2022-09-09T04:16:10;94905.50;;;23.18;48.86
35676;BME280;21790;42.668;23.298;2022-09-09T04:18:36;94904.28;;;23.14;48.50
35676;BME280;21790;42.668;23.298;2022-09-09T04:21:02;94907.78;;;23.20;48.67
35676;BME280;21790;42.668;23.298;2022-09-09T04:23:30;94907.28;;;23.48;48.09
35676;BME280;21790;42.668;23.298;2022-09-09T04:25:57;94909.75;;;23.38;48.69
35676;BME280;21790;42.668;23.298;2022-09-09T04:28:25;94907.81;;;23.46;48.27
35676;BME280;21790;42.668;23.298;2022-09-09T04:30:51;94911.53;;;23.67;47.52
35676;BME280;21790;42.668;23.298;2022-09-09T04:33:18;94913.28;;;23.70;47.55
35676;BME280;21790;42.668;23.298;2022-09-09T04:35:45;94912.19;;;23.60;48.20
35676;BME280;21790;42.668;23.298;2022-09-09T04:38:12;94917.91;;;23.68;47.95
35676;BME280;21790;42.668;23.298;2022-09-09T04:40:38;94908.25;;;23.90;47.71
35676;BME280;21790;42.668;23.298;2022-09-09T04:43:07;94925.28;;;23.97;47.58
35676;BME280;21790;42.668;23.298;2022-09-09T04:45:33;94920.06;;;24.01;47.46
35676;BME280;21790;42.668;23.298;2022-09-09T04:47:58;94913.34;;;23.91;47.58
35676;BME280;21790;42.668;23.298;2022-09-09T04:50:24;94906.72;;;24.02;46.95
35676;BME280;21790;42.668;23.298;2022-09-09T04:52:50;94892.56;;;24.28;46.11
35676;BME280;21790;42.668;23.298;2022-09-09T04:55:16;94896.38;;;24.31;46.40
35676;BME280;21790;42.668;23.298;2022-09-09T04:57:41;94891.25;;;24.29;46.47
35676;BME280;21790;42.668;23.298;2022-09-09T05:00:08;94899.34;;;24.46;46.47
35676;BME280;21790;42.668;23.298;2022-09-09T05:02:38;94901.25;;;24.64;46.37
35676;BME280;21790;42.668;23.298;2022-09-09T05:05:05;94887.66;;;24.63;46.66
35676;BME280;21790;42.668;23.298;2022-09-09T05:07:31;94879.47;;;24.93;46.21
35676;BME280;21790;42.668;23.298;2022-09-09T05:09:56;94870.53;;;24.81;46.12
35676;BME280;21790;42.668;23.298;2022-09-09T05:12:23;94875.66;;;25.04;44.88
35676;BME280;21790;42.668;23.298;2022-09-09T05:14:51;94891.13;;;25.10;44.98
35676;BME280;21790;42.668;23.298;2022-09-09T05:17:17;94896.31;;;25.19;45.43
35676;BME280;21790;42.668;23.298;2022-09-09T05:19:43;94888.59;;;25.48;44.77
35676;BME280;21790;42.668;23.298;2022-09-09T05:22:09;94878.13;;;25.56;44.46
35676;BME280;21790;42.668;23.298;2022-09-09T05:24:36;94874.00;;;25.65;43.42
35676;BME280;21790;42.668;23.298;2022-09-09T05:27:02;94878.44;;;25.81;43.13
35676;BME280;21790;42.668;23.298;2022-09-09T05:29:28;94876.84;;;26.08;43.29
35676;BME280;21790;42.668;23.298;2022-09-09T05:31:54;94878.75;;;26.13;43.15
35676;BME280;21790;42.668;23.298;2022-09-09T05:34:19;94880.19;;;26.28;42.43
35676;BME280;21790;42.668;23.298;2022-09-09T05:36:46;94879.25;;;26.33;42.88
35676;BME280;21790;42.668;23.298;2022-09-09T05:39:12;94876.13;;;26.15;43.77
35676;BME280;21790;42.668;23.298;2022-09-09T05:41:37;94876.72;;;26.21;43.47
35676;BME280;21790;42.668;23.298;2022-09-09T05:44:04;94883.13;;;26.14;43.63
35676;BME280;21790;42.668;23.298;2022-09-09T05:46:32;94894.00;;;26.03;43.70
35676;BME280;21790;42.668;23.298;2022-09-09T05:48:57;94898.63;;;26.21;43.03
35676;BME280;21790;42.668;23.298;2022-09-09T05:51:25;94887.41;;;26.44;42.34
35676;BME280;21790;42.668;23.298;2022-09-09T05:53:52;94892.31;;;26.43;42.58
35676;BME280;21790;42.668;23.298;2022-09-09T05:56:20;94882.50;;;26.44;42.81
35676;BME280;21790;42.668;23.298;2022-09-09T05:58:47;94887.78;;;26.48;43.53
35676;BME280;21790;42.668;23.298;2022-09-09T06:01:19;94888.47;;;26.92;42.39
35676;BME280;21790;42.668;23.298;2022-09-09T06:03:46;94896.06;;;27.20;41.41
35676;BME280;21790;42.668;23.298;2022-09-09T06:06:24;94914.41;;;27.41;40.70
35676;BME280;21790;42.668;23.298;2022-09-09T06:08:52;94909.28;;;27.47;40.87
35676;BME280;21790;42.668;23.298;2022-09-09T06:11:20;94904.38;;;27.63;40.87
35676;BME280;21790;42.668;23.298;2022-09-09T06:13:47;94904.03;;;27.59;40.16
35676;BME280;21790;42.668;23.298;2022-09-09T06:16:15;94904.56;;;27.80;39.91
35676;BME280;21790;42.668;23.298;2022-09-09T06:18:41;94913.28;;;27.67;38.95
35676;BME280;21790;42.668;23.298;2022-09-09T06:21:13;94909.25;;;27.85;39.01
35676;BME280;21790;42.668;23.298;2022-09-09T06:23:40;94899.97;;;27.93;39.11
35676;BME280;21790;42.668;23.298;2022-09-09T06:26:22;94902.38;;;28.11;38.11
35676;BME280;21790;42.668;23.298;2022-09-09T06:28:50;94911.09;;;28.06;37.80
35676;BME280;21790;42.668;23.298;2022-09-09T06:31:20;94917.16;;;28.17;37.96
35676;BME280;21790;42.668;23.298;2022-09-09T06:33:49;94897.59;;;28.29;38.45
35676;BME280;21790;42.668;23.298;2022-09-09T06:36:17;94896.81;;;28.36;38.20
35676;BME280;21790;42.668;23.298;2022-09-09T06:38:43;94887.66;;;28.45;38.12
35676;BME280;21790;42.668;23.298;2022-09-09T06:41:10;94892.16;;;28.56;38.12
35676;BME280;21790;42.668;23.298;2022-09-09T06:43:36;94892.13;;;28.63;37.39
35676;BME280;21790;42.668;23.298;2022-09-09T06:46:08;94896.44;;;28.72;36.24
35676;BME280;21790;42.668;23.298;2022-09-09T06:48:34;94898.94;;;28.68;36.17
35676;BME280;21790;42.668;23.298;2022-09-09T06:53:32;94904.97;;;28.80;36.63
35676;BME280;21790;42.668;23.298;2022-09-09T06:56:02;94914.19;;;28.88;36.12
35676;BME280;21790;42.668;23.298;2022-09-09T06:58:43;94914.28;;;28.73;36.13
35676;BME280;21790;42.668;23.298;2022-09-09T07:01:13;94906.44;;;28.81;36.24
35676;BME280;21790;42.668;23.298;2022-09-09T07:03:40;94915.91;;;28.91;37.05
35676;BME280;21790;42.668;23.298;2022-09-09T07:06:06;94916.88;;;29.10;36.78
35676;BME280;21790;42.668;23.298;2022-09-09T07:08:33;94920.78;;;29.23;36.45
35676;BME280;21790;42.668;23.298;2022-09-09T07:11:06;94912.94;;;29.31;35.90
35676;BME280;21790;42.668;23.298;2022-09-09T07:13:33;94909.16;;;29.28;35.97
35676;BME280;21790;42.668;23.298;2022-09-09T07:16:06;94901.66;;;29.65;35.17
35676;BME280;21790;42.668;23.298;2022-09-09T07:18:32;94895.22;;;29.65;35.16
35676;BME280;21790;42.668;23.298;2022-09-09T07:20:58;94897.72;;;29.61;34.72
35676;BME280;21790;42.668;23.298;2022-09-09T07:23:24;94899.31;;;29.71;35.17
35676;BME280;21790;42.668;23.298;2022-09-09T07:25:51;94893.28;;;29.67;34.87
35676;BME280;21790;42.668;23.298;2022-09-09T07:28:18;94890.19;;;29.73;35.09
35676;BME280;21790;42.668;23.298;2022-09-09T07:31:01;94896.91;;;29.85;34.86
35676;BME280;21790;42.668;23.298;2022-09-09T07:33:31;94890.53;;;29.77;34.65
35676;BME280;21790;42.668;23.298;2022-09-09T07:36:14;94886.22;;;29.93;35.14
35676;BME280;21790;42.668;23.298;2022-09-09T07:38:45;94883.44;;;30.03;35.29
35676;BME280;21790;42.668;23.298;2022-09-09T07:41:14;94892.56;;;30.18;35.19
35676;BME280;21790;42.668;23.298;2022-09-09T07:43:41;94892.25;;;30.31;34.80
35676;BME280;21790;42.668;23.298;2022-09-09T07:46:07;94898.25;;;30.35;34.95
35676;BME280;21790;42.668;23.298;2022-09-09T07:48:33;94891.31;;;30.29;34.99
35676;BME280;21790;42.668;23.298;2022-09-09T07:51:13;94901.44;;;30.57;34.80
35676;BME280;21790;42.668;23.298;2022-09-09T07:53:40;94905.81;;;30.58;35.11
35676;BME280;21790;42.668;23.298;2022-09-09T07:56:08;94899.00;;;30.70;34.24
35676;BME280;21790;42.668;23.298;2022-09-09T07:58:36;94895.88;;;30.76;34.03
35676;BME280;21790;42.668;23.298;2022-09-09T08:01:15;94891.88;;;30.89;33.25
35676;BME280;21790;42.668;23.298;2022-09-09T08:03:44;94893.03;;;30.76;33.66
35676;BME280;21790;42.668;23.298;2022-09-09T08:06:31;94892.88;;;30.57;34.09
35676;BME280;21790;42.668;23.298;2022-09-09T08:09:00;94894.34;;;30.48;34.69
35676;BME280;21790;42.668;23.298;2022-09-09T08:11:28;94897.78;;;30.73;34.18
35676;BME280;21790;42.668;23.298;2022-09-09T08:13:54;94896.41;;;30.65;33.60
35676;BME280;21790;42.668;23.298;2022-09-09T08:16:26;94896.44;;;30.74;33.31
35676;BME280;21790;42.668;23.298;2022-09-09T08:18:52;94899.91;;;30.73;33.94
35676;BME280;21790;42.668;23.298;2022-09-09T08:21:22;94887.50;;;30.88;33.97
35676;BME280;21790;42.668;23.298;2022-09-09T08:23:50;94895.09;;;31.02;33.92
35676;BME280;21790;42.668;23.298;2022-09-09T08:26:23;94894.44;;;30.94;34.02
35676;BME280;21790;42.668;23.298;2022-09-09T08:28:50;94892.91;;;30.84;33.25
35676;BME280;21790;42.668;23.298;2022-09-09T08:31:22;94887.31;;;30.76;33.27
35676;BME280;21790;42.668;23.298;2022-09-09T08:33:48;94884.38;;;30.66;32.88
35676;BME280;21790;42.668;23.298;2022-09-09T08:36:18;94882.28;;;30.67;32.99
35676;BME280;21790;42.668;23.298;2022-09-09T08:38:47;94894.88;;;30.64;33.52
35676;BME280;21790;42.668;23.298;2022-09-09T08:43:52;94887.03;;;30.55;35.40
35676;BME280;21790;42.668;23.298;2022-09-09T08:52:11;94881.22;;;30.62;33.27
35676;BME280;21790;42.668;23.298;2022-09-09T08:54:41;94879.81;;;30.54;32.98
35676;BME280;21790;42.668;23.298;2022-09-09T08:57:18;94882.00;;;30.72;32.98
35676;BME280;21790;42.668;23.298;2022-09-09T08:59:45;94877.59;;;30.62;32.86
35676;BME280;21790;42.668;23.298;2022-09-09T09:02:41;94869.78;;;30.89;32.82
35676;BME280;21790;42.668;23.298;2022-09-09T09:05:42;94868.25;;;30.79;33.21
35676;BME280;21790;42.668;23.298;2022-09-09T09:10:57;94880.00;;;31.09;33.52
35676;BME280;21790;42.668;23.298;2022-09-09T09:13:58;94871.59;;;31.21;32.99
35676;BME280;21790;42.668;23.298;2022-09-09T09:16:39;94875.38;;;31.24;32.49
35676;BME280;21790;42.668;23.298;2022-09-09T09:19:13;94865.72;;;31.09;32.69
35676;BME280;21790;42.668;23.298;2022-09-09T09:24:59;94866.16;;;30.79;31.92
35676;BME280;21790;42.668;23.298;2022-09-09T09:27:34;94868.09;;;30.77;32.68
35676;BME280;21790;42.668;23.298;2022-09-09T09:30:21;94867.66;;;30.80;32.81
35676;BME280;21790;42.668;23.298;2022-09-09T09:32:58;94887.84;;;30.65;33.96
35676;BME280;21790;42.668;23.298;2022-09-09T09:35:25;94867.06;;;30.38;32.96
35676;BME280;21790;42.668;23.298;2022-09-09T09:37:50;94872.16;;;30.56;32.96
35676;BME280;21790;42.668;23.298;2022-09-09T09:40:21;94862.16;;;30.65;32.71
35676;BME280;21790;42.668;23.298;2022-09-09T09:42:52;94857.22;;;30.65;33.11
35676;BME280;21790;42.668;23.298;2022-09-09T09:45:29;94851.44;;;30.83;32.51
35676;BME280;21790;42.668;23.298;2022-09-09T09:48:02;94851.25;;;30.71;33.05
35676;BME280;21790;42.668;23.298;2022-09-09T09:50:30;94850.63;;;30.72;33.32
35676;BME280;21790;42.668;23.298;2022-09-09T09:52:59;94853.00;;;30.66;33.56
35676;BME280;21790;42.668;23.298;2022-09-09T09:55:28;94843.09;;;30.67;32.91
35676;BME280;21790;42.668;23.298;2022-09-09T09:58:01;94836.53;;;30.74;32.90
35676;BME280;21790;42.668;23.298;2022-09-09T10:00:27;94838.41;;;30.62;33.03
35676;BME280;21790;42.668;23.298;2022-09-09T10:02:52;94840.41;;;30.69;33.40
35676;BME280;21790;42.668;23.298;2022-09-09T10:05:28;94844.13;;;30.62;33.01
35676;BME280;21790;42.668;23.298;2022-09-09T10:24:48;94855.28;;;30.07;33.85
35676;BME280;21790;42.668;23.298;2022-09-09T10:27:36;94854.00;;;30.17;34.30
35676;BME280;21790;42.668;23.298;2022-09-09T10:30:19;94846.38;;;30.20;34.46
35676;BME280;21790;42.668;23.298;2022-09-09T10:32:46;94857.34;;;30.23;34.43
35676;BME280;21790;42.668;23.298;2022-09-09T10:35:43;94864.81;;;30.36;34.92
35676;BME280;21790;42.668;23.298;2022-09-09T10:51:42;94867.09;;;30.03;35.62
35676;BME280;21790;42.668;23.298;2022-09-09T10:56:41;94864.31;;;30.13;35.50
35676;BME280;21790;42.668;23.298;2022-09-09T10:59:16;94861.22;;;30.18;35.52
35676;BME280;21790;42.668;23.298;2022-09-09T11:01:47;94851.91;;;30.18;35.48
35676;BME280;21790;42.668;23.298;2022-09-09T11:04:22;94855.25;;;30.24;35.56
35676;BME280;21790;42.668;23.298;2022-09-09T11:06:52;94861.66;;;30.15;35.64
35676;BME280;21790;42.668;23.298;2022-09-09T11:09:24;94857.59;;;30.18;35.97
35676;BME280;21790;42.668;23.298;2022-09-09T11:11:56;94860.47;;;30.18;35.79
35676;BME280;21790;42.668;23.298;2022-09-09T11:17:02;94858.94;;;30.34;35.80
35676;BME280;21790;42.668;23.298;2022-09-09T11:19:39;94848.13;;;30.32;35.96
35676;BME280;21790;42.668;23.298;2022-09-09T11:22:31;94841.91;;;30.44;35.86
35676;BME280;21790;42.668;23.298;2022-09-09T11:25:25;94841.16;;;30.43;36.52
35676;BME280;21790;42.668;23.298;2022-09-09T11:28:06;94840.38;;;30.43;36.62
35676;BME280;21790;42.668;23.298;2022-09-09T11:33:37;94812.72;;;30.53;36.87
35676;BME280;21790;42.668;23.298;2022-09-09T11:41:36;94801.22;;;30.43;36.30
35676;BME280;21790;42.668;23.298;2022-09-09T11:44:11;94791.44;;;30.37;36.49
35676;BME280;21790;42.668;23.298;2022-09-09T11:46:38;94780.94;;;29.95;37.59
35676;BME280;21790;42.668;23.298;2022-09-09T11:52:20;94763.22;;;30.14;37.18
35676;BME280;21790;42.668;23.298;2022-09-09T11:54:48;94766.88;;;30.24;37.42
35676;BME280;21790;42.668;23.298;2022-09-09T11:57:35;94774.91;;;30.35;36.66
35676;BME280;21790;42.668;23.298;2022-09-09T12:00:03;94770.13;;;30.38;37.02
35676;BME280;21790;42.668;23.298;2022-09-09T12:02:29;94767.84;;;30.36;36.63
35676;BME280;21790;42.668;23.298;2022-09-09T12:05:08;94774.31;;;30.63;36.72
35676;BME280;21790;42.668;23.298;2022-09-09T12:07:57;94769.69;;;30.68;36.95
35676;BME280;21790;42.668;23.298;2022-09-09T12:10:30;94758.59;;;30.72;36.48
35676;BME280;21790;42.668;23.298;2022-09-09T12:13:20;94761.13;;;30.68;36.21
35676;BME280;21790;42.668;23.298;2022-09-09T12:15:59;94750.47;;;30.42;36.75
35676;BME280;21790;42.668;23.298;2022-09-09T12:18:34;94754.09;;;30.69;36.68
35676;BME280;21790;42.668;23.298;2022-09-09T12:21:27;94746.00;;;30.75;36.90
35676;BME280;21790;42.668;23.298;2022-09-09T12:24:03;94757.16;;;30.90;36.33
35676;BME280;21790;42.668;23.298;2022-09-09T12:26:45;94752.50;;;30.49;37.09
35676;BME280;21790;42.668;23.298;2022-09-09T12:31:48;94743.84;;;31.02;36.36
35676;BME280;21790;42.668;23.298;2022-09-09T12:37:42;94736.41;;;30.80;35.95
35676;BME280;21790;42.668;23.298;2022-09-09T12:40:23;94735.38;;;30.95;35.64
35676;BME280;21790;42.668;23.298;2022-09-09T12:43:16;94737.41;;;31.11;36.27
35676;BME280;21790;42.668;23.298;2022-09-09T12:45:42;94734.97;;;30.98;36.30
35676;BME280;21790;42.668;23.298;2022-09-09T12:48:10;94733.75;;;31.01;35.63
35676;BME280;21790;42.668;23.298;2022-09-09T12:50:45;94737.41;;;31.11;35.55
35676;BME280;21790;42.668;23.298;2022-09-09T12:53:32;94723.00;;;31.09;35.49
35676;BME280;21790;42.668;23.298;2022-09-09T12:56:06;94724.19;;;31.06;35.85
35676;BME280;21790;42.668;23.298;2022-09-09T12:58:53;94714.97;;;30.98;36.07
35676;BME280;21790;42.668;23.298;2022-09-09T13:01:32;94708.28;;;31.13;35.66
35676;BME280;21790;42.668;23.298;2022-09-09T13:04:01;94700.88;;;31.10;36.04
35676;BME280;21790;42.668;23.298;2022-09-09T13:06:32;94712.31;;;31.10;36.21
35676;BME280;21790;42.668;23.298;2022-09-09T13:09:11;94714.00;;;31.23;35.74
35676;BME280;21790;42.668;23.298;2022-09-09T13:11:42;94705.13;;;31.19;35.93
35676;BME280;21790;42.668;23.298;2022-09-09T13:14:16;94706.94;;;31.24;35.72
35676;BME280;21790;42.668;23.298;2022-09-09T13:16:55;94697.16;;;31.27;35.68
35676;BME280;21790;42.668;23.298;2022-09-09T13:19:21;94694.88;;;31.15;35.78
35676;BME280;21790;42.668;23.298;2022-09-09T13:21:47;94703.16;;;31.21;35.77
35676;BME280;21790;42.668;23.298;2022-09-09T13:24:31;94690.56;;;31.34;35.53
35676;BME280;21790;42.668;23.298;2022-09-09T13:27:00;94686.78;;;30.29;37.18
35676;BME280;21790;42.668;23.298;2022-09-09T13:29:30;94682.91;;;29.98;37.62
35676;BME280;21790;42.668;23.298;2022-09-09T13:32:18;94669.06;;;30.58;36.86
35676;BME280;21790;42.668;23.298;2022-09-09T13:34:55;94672.69;;;30.68;37.01
35676;BME280;21790;42.668;23.298;2022-09-09T13:37:37;94673.63;;;30.80;36.77
35676;BME280;21790;42.668;23.298;2022-09-09T13:40:19;94679.00;;;30.30;37.84
35676;BME280;21790;42.668;23.298;2022-09-09T13:42:47;94675.63;;;30.14;37.51
35676;BME280;21790;42.668;23.298;2022-09-09T13:45:18;94672.47;;;30.10;37.48
35676;BME280;21790;42.668;23.298;2022-09-09T13:47:48;94653.81;;;30.36;37.00
35676;BME280;21790;42.668;23.298;2022-09-09T13:50:28;94664.50;;;30.45;36.74
35676;BME280;21790;42.668;23.298;2022-09-09T13:52:56;94661.91;;;30.40;36.95
35676;BME280;21790;42.668;23.298;2022-09-09T13:55:25;94662.00;;;30.49;36.86
35676;BME280;21790;42.668;23.298;2022-09-09T14:00:18;94661.31;;;30.31;37.11
35676;BME280;21790;42.668;23.298;2022-09-09T14:02:43;94653.19;;;30.64;36.25
35676;BME280;21790;42.668;23.298;2022-09-09T14:05:09;94663.09;;;30.73;36.27
35676;BME280;21790;42.668;23.298;2022-09-09T14:07:38;94659.53;;;30.82;36.55
35676;BME280;21790;42.668;23.298;2022-09-09T14:10:06;94659.38;;;30.80;36.29
35676;BME280;21790;42.668;23.298;2022-09-09T14:12:31;94649.63;;;30.93;36.15
35676;BME280;21790;42.668;23.298;2022-09-09T14:14:57;94652.16;;;30.89;36.28
35676;BME280;21790;42.668;23.298;2022-09-09T14:17:22;94650.53;;;30.86;36.25
35676;BME280;21790;42.668;23.298;2022-09-09T14:19:50;94663.09;;;30.73;36.01
35676;BME280;21790;42.668;23.298;2022-09-09T14:22:15;94649.13;;;30.77;36.16
35676;BME280;21790;42.668;23.298;2022-09-09T14:24:41;94656.03;;;30.64;36.22
35676;BME280;21790;42.668;23.298;2022-09-09T14:27:06;94656.78;;;30.65;36.63
35676;BME280;21790;42.668;23.298;2022-09-09T14:29:32;94658.56;;;30.60;36.22
35676;BME280;21790;42.668;23.298;2022-09-09T14:31:58;94659.47;;;30.63;36.54
35676;BME280;21790;42.668;23.298;2022-09-09T14:34:26;94659.94;;;30.69;36.18
35676;BME280;21790;42.668;23.298;2022-09-09T14:36:52;94659.88;;;30.50;36.48
35676;BME280;21790;42.668;23.298;2022-09-09T14:39:17;94653.59;;;30.51;36.60
35676;BME280;21790;42.668;23.298;2022-09-09T14:41:43;94657.06;;;30.59;36.46
35676;BME280;21790;42.668;23.298;2022-09-09T14:44:08;94647.63;;;30.66;36.34
35676;BME280;21790;42.668;23.298;2022-09-09T14:46:34;94643.03;;;30.44;36.34
35676;BME280;21790;42.668;23.298;2022-09-09T14:48:59;94659.16;;;30.49;36.34
35676;BME280;21790;42.668;23.298;2022-09-09T14:51:26;94650.09;;;30.43;36.02
35676;BME280;21790;42.668;23.298;2022-09-09T14:53:58;94648.66;;;30.61;36.25